This is the latest recevied weather packets stored in our database for station/object DB0SWS-13. If no packets are shown the sender has not sent any weather packets the latest 10 day(s).
| Time | Temp. | Humidity | Pressure | Rain* | Wind** | Luminosity | Snow |
|---|---|---|---|---|---|---|---|
| 1787581313 | 22.22° C | 41% | 1019.6 hPa | - | - | - | - |
| 1787580413 | 22.78° C | 39% | 1020 hPa | - | - | - | - |
| 1787579512 | 23.33° C | 39% | 1019.8 hPa | - | - | - | - |
| 1787578612 | 23.33° C | 39% | 1019.7 hPa | - | - | - | - |
| 1787577712 | 23.33° C | 37% | 1019.9 hPa | - | - | - | - |
| 1787576811 | 23.89° C | 37% | 1020.1 hPa | - | - | - | - |
| 1787575910 | 23.89° C | 38% | 1020.3 hPa | - | - | - | - |
| 1787575010 | 23.89° C | 37% | 1020.3 hPa | - | - | - | - |
| 1787574110 | 23.89° C | 37% | 1020.5 hPa | - | - | - | - |
| 1787573210 | 23.89° C | 37% | 1020.6 hPa | - | - | - | - |
| 1787572310 | 23.89° C | 38% | 1020.7 hPa | - | - | - | - |
| 1787571410 | 23.33° C | 37% | 1020.9 hPa | - | - | - | - |
| 1787570510 | 23.33° C | 36% | 1021.2 hPa | - | - | - | - |
| 1787569613 | 24.44° C | 35% | 1021.2 hPa | - | - | - | - |
| 1787568713 | 23.89° C | 38% | 1021.2 hPa | - | - | - | - |
| 1787567812 | 24.44° C | 36% | 1021.3 hPa | - | - | - | - |
| 1787566912 | 22.78° C | 38% | 1021.5 hPa | - | - | - | - |
| 1787566012 | 22.78° C | 40% | 1021.8 hPa | - | - | - | - |
| 1787565112 | 22.22° C | 41% | 1022 hPa | - | - | - | - |
| 1787564211 | 21.67° C | 41% | 1022.4 hPa | - | - | - | - |
| 1787563311 | 20.56° C | 42% | 1022.7 hPa | - | - | - | - |
| 1787562411 | 20° C | 44% | 1022.7 hPa | - | - | - | - |
| 1787561510 | 20.56° C | 42% | 1022.6 hPa | - | - | - | - |
| 1787560610 | 20.56° C | 42% | 1022.8 hPa | - | - | - | - |
| 1787559710 | 20.56° C | 42% | 1022.9 hPa | - | - | - | - |
* Rain since midnight (hover to see other rain measurements)
** Current wind speed in m/s (hover to see current wind gust speed)